createdAt,value
2022-11-23T00:00:08.823Z,80.62
2022-11-23T00:00:19.033Z,80.65
2022-11-23T00:00:28.775Z,80.66
2022-11-23T00:00:40.235Z,80.69
2022-11-23T00:00:50.254Z,80.77
2022-11-23T00:01:00.223Z,80.78
2022-11-23T00:01:08.774Z,80.76
2022-11-23T00:01:19.735Z,80.71
2022-11-23T00:01:30.250Z,80.73
2022-11-23T00:01:38.795Z,80.82
2022-11-23T00:01:50.330Z,80.74
2022-11-23T00:01:58.846Z,80.86
2022-11-23T00:02:09.684Z,80.79
2022-11-23T00:02:20.255Z,80.90
2022-11-23T00:02:28.811Z,80.91
2022-11-23T00:02:38.803Z,80.83
2022-11-23T00:02:49.010Z,80.89
2022-11-23T00:03:00.233Z,80.90
2022-11-23T00:03:10.224Z,80.98
2022-11-23T00:03:18.766Z,80.93
2022-11-23T00:03:28.786Z,80.90
2022-11-23T00:03:38.807Z,80.88
2022-11-23T00:03:50.224Z,80.88
2022-11-23T00:03:59.734Z,80.98
2022-11-23T00:04:10.225Z,80.95
2022-11-23T00:04:18.763Z,80.93
2022-11-23T00:04:30.217Z,80.86
2022-11-23T00:04:38.767Z,81.00
2022-11-23T00:04:50.214Z,80.89
2022-11-23T00:05:00.206Z,80.98
2022-11-23T00:05:08.747Z,80.94
2022-11-23T00:05:20.214Z,80.85
2022-11-23T00:05:30.216Z,80.96
2022-11-23T00:05:38.760Z,80.93
2022-11-23T00:05:48.754Z,80.88
2022-11-23T00:05:58.784Z,80.88
2022-11-23T00:06:08.772Z,80.93
2022-11-23T00:06:19.516Z,80.95
2022-11-23T00:06:30.214Z,81.02
2022-11-23T00:06:40.214Z,81.08
2022-11-23T00:06:48.764Z,81.09
2022-11-23T00:06:58.733Z,81.00
2022-11-23T00:07:08.797Z,81.05
2022-11-23T00:07:18.800Z,81.10
2022-11-23T00:07:28.832Z,81.11
2022-11-23T00:07:40.280Z,81.15
2022-11-23T00:07:49.669Z,81.24
2022-11-23T00:07:59.877Z,81.17
2022-11-23T00:08:08.746Z,81.20
2022-11-23T00:08:19.574Z,81.12
2022-11-23T00:08:28.744Z,81.27
2022-11-23T00:08:38.735Z,81.17
2022-11-23T00:08:49.715Z,81.15
2022-11-23T00:08:58.925Z,81.28
2022-11-23T00:09:10.158Z,81.25
2022-11-23T00:09:19.735Z,81.32
2022-11-23T00:09:30.648Z,81.29
2022-11-23T00:09:40.181Z,81.38
2022-11-23T00:09:49.105Z,81.27
2022-11-23T00:09:59.036Z,81.20
2022-11-23T00:10:08.716Z,81.25
2022-11-23T00:10:19.635Z,81.25
2022-11-23T00:10:29.043Z,81.33
2022-11-23T00:10:40.167Z,81.34
2022-11-23T00:10:50.164Z,81.40
2022-11-23T00:10:58.744Z,81.41
2022-11-23T00:11:09.075Z,81.32
2022-11-23T00:11:19.012Z,81.38
2022-11-23T00:11:29.045Z,81.41
2022-11-23T00:11:40.155Z,81.45
2022-11-23T00:11:49.115Z,81.45
2022-11-23T00:11:59.049Z,81.41
2022-11-23T00:12:09.084Z,81.43
2022-11-23T00:12:18.815Z,81.48
2022-11-23T00:12:29.153Z,81.41
2022-11-23T00:12:40.145Z,81.48
2022-11-23T00:12:48.824Z,81.48
2022-11-23T00:12:58.695Z,81.45
2022-11-23T00:13:08.985Z,81.42
2022-11-23T00:13:18.716Z,81.50
2022-11-23T00:13:28.686Z,81.51
2022-11-23T00:13:38.716Z,81.56
2022-11-23T00:13:49.128Z,81.59
2022-11-23T00:13:58.688Z,81.56
2022-11-23T00:14:10.176Z,81.54
2022-11-23T00:14:20.147Z,81.66
2022-11-23T00:14:30.130Z,81.72
2022-11-23T00:14:40.155Z,81.71
2022-11-23T00:14:49.240Z,81.76
2022-11-23T00:14:58.708Z,81.75
2022-11-23T00:15:08.686Z,81.72
2022-11-23T00:15:18.707Z,81.70
2022-11-23T00:15:28.664Z,81.67
2022-11-23T00:15:38.685Z,81.69
2022-11-23T00:15:49.624Z,81.71
2022-11-23T00:15:58.696Z,81.74
2022-11-23T00:16:08.696Z,81.69
2022-11-23T00:16:18.739Z,81.67
2022-11-23T00:16:28.666Z,81.71
2022-11-23T00:16:38.706Z,81.73
2022-11-23T00:16:48.743Z,81.77
2022-11-23T00:16:58.779Z,81.76
2022-11-23T00:17:08.809Z,81.83
2022-11-23T00:17:18.845Z,81.88
2022-11-23T00:17:28.779Z,81.85
2022-11-23T00:17:38.666Z,81.88
2022-11-23T00:17:48.846Z,81.89
2022-11-23T00:17:58.887Z,81.87
2022-11-23T00:18:08.818Z,81.88
2022-11-23T00:18:18.855Z,81.85
2022-11-23T00:18:28.967Z,81.90
2022-11-23T00:18:38.927Z,81.88
2022-11-23T00:18:48.858Z,81.91
2022-11-23T00:18:58.895Z,81.86
2022-11-23T00:19:08.936Z,81.88
2022-11-23T00:19:18.967Z,81.95
2022-11-23T00:19:29.299Z,81.92
2022-11-23T00:19:38.647Z,82.01
2022-11-23T00:19:48.968Z,81.91
2022-11-23T00:19:58.798Z,81.99
2022-11-23T00:20:08.937Z,81.95
2022-11-23T00:20:18.974Z,81.97
2022-11-23T00:20:28.636Z,81.99
2022-11-23T00:20:39.617Z,82.00
2022-11-23T00:20:48.877Z,82.07
2022-11-23T00:21:00.107Z,82.02
2022-11-23T00:21:09.631Z,82.06
2022-11-23T00:21:20.097Z,82.08
2022-11-23T00:21:29.118Z,82.15
2022-11-23T00:21:39.586Z,82.07
2022-11-23T00:21:48.731Z,82.15
2022-11-23T00:21:58.919Z,82.08
2022-11-23T00:22:08.768Z,82.16
2022-11-23T00:22:18.633Z,82.14
2022-11-23T00:22:28.655Z,82.19
2022-11-23T00:22:38.676Z,82.17
2022-11-23T00:22:48.679Z,82.18
2022-11-23T00:22:59.448Z,82.19
2022-11-23T00:23:08.638Z,82.21
2022-11-23T00:23:20.139Z,82.16
2022-11-23T00:23:30.089Z,82.27
2022-11-23T00:23:38.628Z,82.25
2022-11-23T00:23:48.670Z,82.21
2022-11-23T00:23:58.660Z,82.20
2022-11-23T00:24:08.656Z,82.25
2022-11-23T00:24:18.617Z,82.27
2022-11-23T00:24:28.703Z,82.28
2022-11-23T00:24:40.142Z,82.27
2022-11-23T00:24:50.152Z,82.38
2022-11-23T00:25:00.151Z,82.31
2022-11-23T00:25:10.123Z,82.35
2022-11-23T00:25:20.069Z,82.28
2022-11-23T00:25:28.627Z,82.30
2022-11-23T00:25:40.101Z,82.22
2022-11-23T00:25:49.578Z,82.33
2022-11-23T00:26:00.085Z,82.29
2022-11-23T00:26:10.062Z,82.33
2022-11-23T00:26:19.490Z,82.33
2022-11-23T00:26:30.088Z,82.35
2022-11-23T00:26:40.079Z,82.31
2022-11-23T00:26:50.059Z,82.36
2022-11-23T00:27:00.078Z,82.33
2022-11-23T00:27:08.624Z,82.34
2022-11-23T00:27:18.626Z,82.29
2022-11-23T00:27:30.060Z,82.36
2022-11-23T00:27:40.080Z,82.43
2022-11-23T00:27:50.052Z,82.42
2022-11-23T00:27:58.600Z,82.45
2022-11-23T00:28:08.652Z,82.31
2022-11-23T00:28:18.628Z,82.31
2022-11-23T00:28:28.591Z,82.32
2022-11-23T00:28:38.627Z,82.33
2022-11-23T00:28:50.050Z,82.36
2022-11-23T00:28:59.388Z,82.41
2022-11-23T00:29:10.048Z,82.35
2022-11-23T00:29:20.043Z,82.36
2022-11-23T00:29:28.703Z,82.41
2022-11-23T00:29:39.659Z,82.31
2022-11-23T00:29:50.049Z,82.36
2022-11-23T00:30:00.029Z,82.38
2022-11-23T00:30:08.578Z,82.31
2022-11-23T00:30:18.639Z,82.29
2022-11-23T00:30:28.624Z,82.32
2022-11-23T00:30:38.579Z,82.32
2022-11-23T00:30:50.042Z,82.30
2022-11-23T00:31:00.049Z,82.39
2022-11-23T00:31:10.038Z,82.37
2022-11-23T00:31:18.600Z,82.37
2022-11-23T00:31:30.029Z,82.31
2022-11-23T00:31:39.560Z,82.43
2022-11-23T00:31:48.638Z,82.35
2022-11-23T00:32:00.015Z,82.34
2022-11-23T00:32:10.059Z,82.40
2022-11-23T00:32:20.050Z,82.42
2022-11-23T00:32:28.569Z,82.40
2022-11-23T00:32:40.040Z,82.34
2022-11-23T00:32:48.559Z,82.46
2022-11-23T00:32:59.510Z,82.44
2022-11-23T00:33:08.600Z,82.46
2022-11-23T00:33:18.601Z,82.39
2022-11-23T00:33:28.681Z,82.45
2022-11-23T00:33:38.553Z,82.43
2022-11-23T00:33:49.430Z,82.43
2022-11-23T00:34:00.009Z,82.50
2022-11-23T00:34:08.570Z,82.52
2022-11-23T00:34:18.930Z,82.44
2022-11-23T00:34:28.689Z,82.48
2022-11-23T00:34:39.350Z,82.41
2022-11-23T00:34:50.009Z,82.45
2022-11-23T00:35:00.041Z,82.49
2022-11-23T00:35:08.560Z,82.48
2022-11-23T00:35:18.682Z,82.38
2022-11-23T00:35:28.533Z,82.41
2022-11-23T00:35:38.560Z,82.44
2022-11-23T00:35:50.012Z,82.39
2022-11-23T00:35:58.547Z,82.52
2022-11-23T00:36:08.561Z,82.38
2022-11-23T00:36:20.021Z,82.43
2022-11-23T00:36:30.009Z,82.46
2022-11-23T00:36:39.989Z,82.49
2022-11-23T00:36:49.982Z,82.43
2022-11-23T00:36:58.702Z,82.43
2022-11-23T00:37:08.753Z,82.41
2022-11-23T00:37:19.350Z,82.42
2022-11-23T00:37:28.530Z,82.45
2022-11-23T00:37:39.990Z,82.41
2022-11-23T00:37:48.551Z,82.47
2022-11-23T00:37:59.481Z,82.45
2022-11-23T00:38:10.031Z,82.43
2022-11-23T00:38:19.990Z,82.47
2022-11-23T00:38:28.711Z,82.39
2022-11-23T00:38:38.761Z,82.36
2022-11-23T00:38:48.790Z,82.38
2022-11-23T00:38:58.720Z,82.39
2022-11-23T00:39:08.768Z,82.40
2022-11-23T00:39:18.790Z,82.42
2022-11-23T00:39:28.882Z,82.40
2022-11-23T00:39:39.950Z,82.41
2022-11-23T00:39:48.793Z,82.54
2022-11-23T00:39:58.730Z,82.44
2022-11-23T00:40:08.761Z,82.45
2022-11-23T00:40:18.800Z,82.40
2022-11-23T00:40:28.829Z,82.41
2022-11-23T00:40:38.511Z,82.38
2022-11-23T00:40:48.521Z,82.40
2022-11-23T00:40:58.850Z,82.44
2022-11-23T00:41:08.490Z,82.41
2022-11-23T00:41:18.801Z,82.40
2022-11-23T00:41:29.959Z,82.42
2022-11-23T00:41:38.502Z,82.47
2022-11-23T00:41:48.521Z,82.42
2022-11-23T00:41:58.532Z,82.38
2022-11-23T00:42:08.491Z,82.39
2022-11-23T00:42:18.523Z,82.37
2022-11-23T00:42:35.118Z,82.46
2022-11-23T00:42:39.599Z,82.80
2022-11-23T00:42:50.581Z,82.61
2022-11-23T00:43:00.344Z,82.56
2022-11-23T00:43:11.011Z,82.49
2022-11-23T00:43:21.031Z,82.45
2022-11-23T00:43:31.001Z,82.40
2022-11-23T00:43:41.740Z,82.41
2022-11-23T00:43:49.609Z,82.41
2022-11-23T00:43:59.738Z,82.33
2022-11-23T00:44:09.547Z,82.32
2022-11-23T00:44:20.023Z,82.33
2022-11-23T00:44:31.011Z,82.38
2022-11-23T00:44:39.574Z,82.44
2022-11-23T00:44:49.645Z,82.34
2022-11-23T00:45:00.412Z,82.27
2022-11-23T00:45:09.600Z,82.32
2022-11-23T00:45:21.022Z,82.32
2022-11-23T00:45:31.001Z,82.35
2022-11-23T00:45:41.012Z,82.34
2022-11-23T00:45:49.542Z,82.32
2022-11-23T00:45:59.561Z,82.26
2022-11-23T00:46:09.553Z,82.25
2022-11-23T00:46:21.001Z,82.25
2022-11-23T00:46:30.982Z,82.30
2022-11-23T00:46:40.982Z,82.35
2022-11-23T00:46:49.545Z,82.33
2022-11-23T00:47:00.992Z,82.25
2022-11-23T00:47:10.972Z,82.31
2022-11-23T00:47:21.003Z,82.27
2022-11-23T00:47:29.522Z,82.26
2022-11-23T00:47:39.542Z,82.20
2022-11-23T00:47:51.002Z,82.23
2022-11-23T00:47:59.522Z,82.31
2022-11-23T00:48:09.554Z,82.19
2022-11-23T00:48:20.344Z,82.19
2022-11-23T00:48:29.571Z,82.23
2022-11-23T00:48:40.983Z,82.16
2022-11-23T00:48:50.982Z,82.26
2022-11-23T00:49:00.972Z,82.23
2022-11-23T00:49:10.982Z,82.28
2022-11-23T00:49:19.511Z,82.20
2022-11-23T00:49:29.721Z,82.13
2022-11-23T00:49:40.482Z,82.15
2022-11-23T00:49:51.032Z,82.28
2022-11-23T00:49:59.565Z,82.28
2022-11-23T00:50:10.979Z,82.15
2022-11-23T00:50:19.511Z,82.27
2022-11-23T00:50:31.086Z,82.13
2022-11-23T00:50:39.543Z,82.22
2022-11-23T00:50:50.953Z,82.14
2022-11-23T00:51:00.962Z,82.24
2022-11-23T00:51:09.512Z,82.20
2022-11-23T00:51:20.953Z,82.11
2022-11-23T00:51:30.954Z,82.22
2022-11-23T00:51:39.515Z,82.18
2022-11-23T00:51:49.514Z,82.11
2022-11-23T00:52:00.968Z,82.13
2022-11-23T00:52:10.944Z,82.20
2022-11-23T00:52:20.491Z,82.13
2022-11-23T00:52:30.935Z,82.10
2022-11-23T00:52:39.494Z,82.13
2022-11-23T00:52:49.522Z,82.08
2022-11-23T00:53:00.943Z,82.07
2022-11-23T00:53:09.493Z,82.07
2022-11-23T00:53:20.943Z,82.03
2022-11-23T00:53:29.842Z,82.11
2022-11-23T00:53:40.074Z,82.01
2022-11-23T00:53:50.115Z,82.06
2022-11-23T00:54:00.048Z,82.04
2022-11-23T00:54:10.083Z,82.09
2022-11-23T00:54:20.114Z,82.06
2022-11-23T00:54:29.474Z,82.07
2022-11-23T00:54:39.482Z,82.01
2022-11-23T00:54:50.124Z,82.04
2022-11-23T00:55:00.157Z,82.07
2022-11-23T00:55:10.192Z,82.05
2022-11-23T00:55:19.924Z,82.03
2022-11-23T00:55:30.164Z,82.06
2022-11-23T00:55:40.904Z,82.04
2022-11-23T00:55:50.132Z,82.06
2022-11-23T00:56:00.076Z,82.01
2022-11-23T00:56:10.201Z,82.06
2022-11-23T00:56:20.239Z,82.08
2022-11-23T00:56:30.171Z,82.09
2022-11-23T00:56:39.503Z,82.16
2022-11-23T00:56:50.254Z,82.09
2022-11-23T00:57:00.073Z,82.21
2022-11-23T00:57:10.204Z,82.16
2022-11-23T00:57:20.241Z,82.16
2022-11-23T00:57:29.664Z,82.21
2022-11-23T00:57:39.454Z,82.17
2022-11-23T00:57:49.456Z,82.18
2022-11-23T00:57:59.455Z,82.18
2022-11-23T00:58:09.452Z,82.21
2022-11-23T00:58:19.464Z,82.17
2022-11-23T00:58:29.468Z,82.16
2022-11-23T00:58:39.448Z,82.20
2022-11-23T00:58:49.481Z,82.27
2022-11-23T00:59:00.915Z,82.25
2022-11-23T00:59:09.507Z,82.37
2022-11-23T00:59:20.124Z,82.28
2022-11-23T00:59:30.750Z,82.33
2022-11-23T00:59:39.455Z,82.35
2022-11-23T00:59:49.466Z,82.28
2022-11-23T00:59:59.455Z,82.34
2022-11-23T01:00:09.465Z,82.35
2022-11-23T01:00:20.914Z,82.36
2022-11-23T01:00:30.415Z,82.44
2022-11-23T01:00:39.437Z,82.47
2022-11-23T01:00:50.912Z,82.44
2022-11-23T01:01:00.891Z,82.47
2022-11-23T01:01:09.511Z,82.50
2022-11-23T01:01:20.432Z,82.46
2022-11-23T01:01:29.468Z,82.46
2022-11-23T01:01:40.435Z,82.44
2022-11-23T01:01:49.516Z,82.50
2022-11-23T01:01:59.484Z,82.41
2022-11-23T01:02:09.544Z,82.46
2022-11-23T01:02:20.885Z,82.45
2022-11-23T01:02:29.437Z,82.70
2022-11-23T01:02:39.489Z,82.58
2022-11-23T01:02:50.234Z,82.67
2022-11-23T01:02:59.424Z,82.77
2022-11-23T01:03:10.906Z,82.72
2022-11-23T01:03:19.444Z,82.83
2022-11-23T01:03:30.434Z,82.74
2022-11-23T01:03:39.454Z,82.75
2022-11-23T01:03:50.895Z,82.71
2022-11-23T01:03:59.403Z,82.76
2022-11-23T01:04:09.638Z,82.64
2022-11-23T01:04:20.856Z,82.70
2022-11-23T01:04:29.605Z,82.77
2022-11-23T01:04:40.316Z,82.67
2022-11-23T01:04:49.425Z,82.72
2022-11-23T01:04:59.616Z,82.65
2022-11-23T01:05:10.857Z,82.69
2022-11-23T01:05:20.856Z,82.76
2022-11-23T01:05:29.401Z,82.67
2022-11-23T01:05:39.426Z,82.59
2022-11-23T01:05:49.414Z,82.64
2022-11-23T01:05:59.485Z,82.69
2022-11-23T01:06:10.866Z,82.70
2022-11-23T01:06:19.405Z,82.72
2022-11-23T01:06:30.403Z,82.63
2022-11-23T01:06:40.855Z,82.72
2022-11-23T01:06:50.849Z,82.79
2022-11-23T01:06:59.398Z,82.77
2022-11-23T01:07:10.377Z,82.65
2022-11-23T01:07:20.855Z,82.78
2022-11-23T01:07:30.457Z,82.84
2022-11-23T01:07:39.440Z,82.81
2022-11-23T01:07:49.521Z,82.74
2022-11-23T01:08:00.846Z,82.79
2022-11-23T01:08:09.448Z,82.81
2022-11-23T01:08:19.409Z,82.76
2022-11-23T01:08:29.397Z,82.76
2022-11-23T01:08:39.387Z,82.76
2022-11-23T01:08:49.410Z,82.75
2022-11-23T01:09:00.847Z,82.79
2022-11-23T01:09:10.838Z,82.86
2022-11-23T01:09:20.855Z,82.84
2022-11-23T01:09:29.750Z,82.77
2022-11-23T01:09:40.827Z,82.76
2022-11-23T01:09:49.376Z,82.85
2022-11-23T01:10:00.836Z,82.81
2022-11-23T01:10:10.826Z,82.91
2022-11-23T01:10:20.826Z,82.89
2022-11-23T01:10:29.377Z,82.94
2022-11-23T01:10:39.377Z,82.85
2022-11-23T01:10:49.396Z,82.90
2022-11-23T01:11:00.817Z,82.85
2022-11-23T01:11:10.835Z,82.98
2022-11-23T01:11:19.407Z,82.96
2022-11-23T01:11:29.402Z,82.88
2022-11-23T01:11:40.818Z,82.86
2022-11-23T01:11:50.817Z,82.96
2022-11-23T01:11:59.381Z,82.98
2022-11-23T01:12:09.408Z,82.95
2022-11-23T01:12:19.369Z,82.94
2022-11-23T01:12:29.369Z,82.97
2022-11-23T01:12:40.827Z,82.92
2022-11-23T01:12:49.456Z,83.02
2022-11-23T01:13:00.786Z,82.92
2022-11-23T01:13:09.347Z,82.98
2022-11-23T01:13:19.386Z,82.90
2022-11-23T01:13:30.810Z,82.89
2022-11-23T01:13:39.334Z,83.02
2022-11-23T01:13:49.357Z,82.93
2022-11-23T01:14:00.796Z,82.93
2022-11-23T01:14:10.798Z,83.05
2022-11-23T01:14:19.382Z,83.06
2022-11-23T01:14:30.796Z,82.93
2022-11-23T01:14:39.337Z,83.04
2022-11-23T01:14:50.105Z,83.02
2022-11-23T01:14:59.346Z,83.06
2022-11-23T01:15:10.798Z,83.06
2022-11-23T01:15:19.436Z,83.10
2022-11-23T01:15:29.347Z,83.08
2022-11-23T01:15:39.345Z,83.10
2022-11-23T01:15:50.266Z,83.17
2022-11-23T01:15:59.328Z,83.18
2022-11-23T01:16:09.359Z,83.09
2022-11-23T01:16:23.875Z,83.18
2022-11-23T01:16:30.780Z,83.40
2022-11-23T01:16:40.784Z,83.38
2022-11-23T01:16:49.328Z,83.28
2022-11-23T01:17:00.777Z,83.17
2022-11-23T01:17:10.778Z,83.27
2022-11-23T01:17:20.778Z,83.23
2022-11-23T01:17:29.327Z,83.24
2022-11-23T01:17:39.330Z,83.14
2022-11-23T01:17:49.327Z,83.19
2022-11-23T01:17:59.338Z,83.19
2022-11-23T01:18:10.757Z,83.26
2022-11-23T01:18:19.307Z,83.28
2022-11-23T01:18:29.366Z,83.17
2022-11-23T01:18:39.329Z,83.23
2022-11-23T01:18:49.335Z,83.17
2022-11-23T01:18:59.337Z,83.17
2022-11-23T01:19:10.749Z,83.18
2022-11-23T01:19:20.757Z,83.22
2022-11-23T01:19:29.664Z,83.22
2022-11-23T01:19:39.338Z,83.23
2022-11-23T01:19:50.137Z,83.21
2022-11-23T01:20:00.758Z,83.22
2022-11-23T01:20:09.339Z,83.16
2022-11-23T01:20:19.317Z,83.10
2022-11-23T01:20:29.301Z,83.17
2022-11-23T01:20:39.410Z,83.15
2022-11-23T01:20:50.738Z,83.14
2022-11-23T01:20:59.415Z,83.22
2022-11-23T01:21:09.283Z,83.11
2022-11-23T01:21:20.248Z,83.12
2022-11-23T01:21:29.310Z,83.17
2022-11-23T01:21:39.466Z,83.08
2022-11-23T01:21:49.380Z,83.09
2022-11-23T01:21:59.420Z,83.09
2022-11-23T01:22:09.448Z,83.10
2022-11-23T01:22:19.488Z,83.15
2022-11-23T01:22:29.421Z,83.07
2022-11-23T01:22:39.457Z,83.06
2022-11-23T01:22:49.491Z,83.06
2022-11-23T01:22:59.530Z,83.03
2022-11-23T01:23:09.459Z,83.02
2022-11-23T01:23:19.496Z,83.02
2022-11-23T01:23:29.529Z,82.97
2022-11-23T01:23:39.469Z,83.01
2022-11-23T01:23:49.503Z,82.96
2022-11-23T01:24:00.728Z,82.97
2022-11-23T01:24:09.269Z,83.02
2022-11-23T01:24:19.499Z,82.94
2022-11-23T01:24:29.289Z,82.97
2022-11-23T01:24:40.748Z,82.98
2022-11-23T01:24:50.730Z,83.00
2022-11-23T01:24:59.268Z,83.00
2022-11-23T01:25:09.270Z,82.90
2022-11-23T01:25:20.729Z,82.96
2022-11-23T01:25:30.231Z,83.04
2022-11-23T01:25:39.279Z,83.00
2022-11-23T01:25:55.668Z,82.95
2022-11-23T01:26:01.080Z,83.29
2022-11-23T01:26:10.319Z,83.24
2022-11-23T01:26:20.349Z,83.08
2022-11-23T01:26:31.770Z,83.06
2022-11-23T01:26:41.769Z,83.12
2022-11-23T01:26:50.319Z,83.12
2022-11-23T01:27:00.309Z,82.95
2022-11-23T01:27:11.762Z,83.03
2022-11-23T01:27:20.319Z,83.04
2022-11-23T01:27:30.342Z,82.98
2022-11-23T01:27:41.793Z,83.00
2022-11-23T01:27:50.300Z,83.05
2022-11-23T01:28:00.320Z,82.96
2022-11-23T01:28:10.320Z,82.95
2022-11-23T01:28:20.320Z,82.93
2022-11-23T01:28:31.771Z,82.90
2022-11-23T01:28:40.316Z,83.01
2022-11-23T01:28:51.760Z,82.99
2022-11-23T01:29:01.752Z,83.08
2022-11-23T01:29:10.289Z,83.02
2022-11-23T01:29:20.334Z,82.95
2022-11-23T01:29:30.781Z,82.98
2022-11-23T01:29:40.298Z,83.08
2022-11-23T01:29:50.330Z,83.05
2022-11-23T01:30:01.772Z,83.08
2022-11-23T01:30:10.357Z,83.13
2022-11-23T01:30:21.770Z,83.13
2022-11-23T01:30:30.284Z,83.27
2022-11-23T01:30:41.150Z,83.18
2022-11-23T01:30:51.260Z,83.33
2022-11-23T01:31:01.741Z,83.30
2022-11-23T01:31:11.739Z,83.39
2022-11-23T01:31:20.302Z,83.42
2022-11-23T01:31:30.280Z,83.29
2022-11-23T01:31:46.157Z,83.34
2022-11-23T01:31:51.349Z,83.68
2022-11-23T01:32:02.802Z,83.54
2022-11-23T01:32:12.820Z,83.53
2022-11-23T01:32:22.790Z,83.49
2022-11-23T01:32:32.795Z,83.50
2022-11-23T01:32:42.790Z,83.48
2022-11-23T01:32:51.341Z,83.46
2022-11-23T01:33:02.811Z,83.44
2022-11-23T01:33:11.418Z,83.55
2022-11-23T01:33:22.785Z,83.57
2022-11-23T01:33:32.151Z,83.62
2022-11-23T01:33:42.782Z,83.61
2022-11-23T01:33:52.780Z,83.66
2022-11-23T01:34:01.773Z,83.68
2022-11-23T01:34:11.789Z,83.66
2022-11-23T01:34:21.337Z,83.73
2022-11-23T01:34:32.804Z,83.74
2022-11-23T01:34:41.790Z,83.86
2022-11-23T01:34:51.830Z,83.78
2022-11-23T01:35:01.870Z,83.82
2022-11-23T01:35:12.766Z,83.79
2022-11-23T01:35:21.831Z,83.81
2022-11-23T01:35:32.755Z,83.77
2022-11-23T01:35:42.782Z,83.83
2022-11-23T01:35:52.271Z,83.83
2022-11-23T01:36:02.759Z,83.81
2022-11-23T01:36:12.757Z,83.82
2022-11-23T01:36:21.362Z,83.87
2022-11-23T01:36:31.783Z,83.81
2022-11-23T01:36:41.331Z,83.86
2022-11-23T01:36:52.760Z,83.82
2022-11-23T01:37:02.763Z,83.89
2022-11-23T01:37:12.752Z,83.92
2022-11-23T01:37:22.262Z,83.84
2022-11-23T01:37:32.761Z,83.87
2022-11-23T01:37:41.333Z,83.93
2022-11-23T01:37:51.851Z,83.81
2022-11-23T01:38:02.742Z,83.94
2022-11-23T01:38:17.997Z,83.98
2022-11-23T01:38:23.225Z,84.21
2022-11-23T01:38:32.719Z,84.14
2022-11-23T01:38:42.332Z,84.04
2022-11-23T01:38:52.473Z,84.10
2022-11-23T01:39:02.411Z,84.13
2022-11-23T01:39:12.344Z,84.16
2022-11-23T01:39:23.162Z,84.15
2022-11-23T01:39:32.435Z,84.24
2022-11-23T01:39:42.851Z,84.24
2022-11-23T01:39:53.332Z,84.20
2022-11-23T01:40:02.336Z,84.22
2022-11-23T01:40:13.792Z,84.13
2022-11-23T01:40:23.283Z,84.16
2022-11-23T01:40:32.344Z,84.14
2022-11-23T01:40:43.781Z,84.09
2022-11-23T01:40:52.341Z,84.21
2022-11-23T01:41:02.358Z,84.14
2022-11-23T01:41:12.319Z,84.15
2022-11-23T01:41:22.393Z,84.11
2022-11-23T01:41:32.361Z,84.11
2022-11-23T01:41:42.372Z,84.12
2022-11-23T01:41:52.311Z,84.08
2022-11-23T01:42:03.772Z,84.11
2022-11-23T01:42:17.598Z,84.19
2022-11-23T01:42:22.353Z,84.41
2022-11-23T01:42:32.322Z,84.25
2022-11-23T01:42:43.275Z,84.18
2022-11-23T01:42:52.352Z,84.16
2022-11-23T01:43:03.792Z,84.09
2022-11-23T01:43:12.300Z,84.13
2022-11-23T01:43:22.322Z,84.08
2022-11-23T01:43:33.240Z,84.04
2022-11-23T01:43:42.305Z,84.06
2022-11-23T01:43:52.314Z,84.08
2022-11-23T01:44:02.293Z,84.02
2022-11-23T01:44:12.482Z,84.09
2022-11-23T01:44:22.514Z,84.09
2022-11-23T01:44:32.297Z,84.11
2022-11-23T01:44:43.125Z,84.06
2022-11-23T01:44:53.752Z,84.10
2022-11-23T01:45:02.382Z,84.17
2022-11-23T01:45:13.752Z,84.13
2022-11-23T01:45:23.243Z,84.24
2022-11-23T01:45:33.793Z,84.22
2022-11-23T01:45:43.752Z,84.30
2022-11-23T01:45:53.277Z,84.29
2022-11-23T01:46:03.743Z,84.22
2022-11-23T01:46:12.605Z,84.32
2022-11-23T01:46:23.749Z,84.22
2022-11-23T01:46:33.233Z,84.32
2022-11-23T01:46:43.743Z,84.28
2022-11-23T01:46:53.722Z,84.28
2022-11-23T01:47:03.160Z,84.32
2022-11-23T01:47:12.285Z,84.27
2022-11-23T01:47:23.736Z,84.23
2022-11-23T01:47:33.114Z,84.31
2022-11-23T01:47:42.276Z,84.22
2022-11-23T01:47:53.742Z,84.21
2022-11-23T01:48:03.224Z,84.31
2022-11-23T01:48:12.273Z,84.26
2022-11-23T01:48:22.330Z,84.15
2022-11-23T01:48:32.321Z,84.20
2022-11-23T01:48:43.735Z,84.20
2022-11-23T01:48:52.262Z,84.32
2022-11-23T01:49:03.736Z,84.23
2022-11-23T01:49:12.710Z,84.39
2022-11-23T01:49:23.723Z,84.35
2022-11-23T01:49:33.259Z,84.40
2022-11-23T01:49:42.274Z,84.39
2022-11-23T01:49:53.744Z,84.40
2022-11-23T01:50:02.624Z,84.47
2022-11-23T01:50:12.244Z,84.40
2022-11-23T01:50:22.294Z,84.33
2022-11-23T01:50:32.315Z,84.37
2022-11-23T01:50:42.254Z,84.36
2022-11-23T01:50:52.264Z,84.45
2022-11-23T01:51:02.280Z,84.50
2022-11-23T01:51:12.253Z,84.47
2022-11-23T01:51:23.754Z,84.53
2022-11-23T01:51:33.703Z,84.61
2022-11-23T01:51:42.244Z,84.51
2022-11-23T01:51:52.254Z,84.44
2022-11-23T01:52:02.255Z,84.49
2022-11-23T01:52:12.252Z,84.53
2022-11-23T01:52:23.714Z,84.58
2022-11-23T01:52:32.906Z,84.58
2022-11-23T01:52:42.247Z,84.58
2022-11-23T01:52:52.342Z,84.55
2022-11-23T01:53:02.224Z,84.67
2022-11-23T01:53:12.224Z,84.74
2022-11-23T01:53:22.234Z,84.76
2022-11-23T01:53:33.696Z,84.74
2022-11-23T01:53:42.236Z,84.83
2022-11-23T01:53:52.274Z,84.67
2022-11-23T01:54:02.274Z,84.69
2022-11-23T01:54:12.215Z,84.66
2022-11-23T01:54:23.685Z,84.69
2022-11-23T01:54:33.015Z,84.71
2022-11-23T01:54:42.223Z,84.68
2022-11-23T01:54:52.275Z,84.64
2022-11-23T01:55:08.318Z,84.70
2022-11-23T01:55:13.263Z,84.98
2022-11-23T01:55:23.274Z,84.83
2022-11-23T01:55:33.275Z,84.80
2022-11-23T01:55:43.299Z,84.78
2022-11-23T01:55:54.706Z,84.81
2022-11-23T01:56:04.208Z,84.88
2022-11-23T01:56:13.286Z,84.88
2022-11-23T01:56:24.725Z,84.81
2022-11-23T01:56:33.346Z,84.90
2022-11-23T01:56:43.275Z,84.80
2022-11-23T01:56:53.245Z,84.81
2022-11-23T01:57:03.268Z,84.84
2022-11-23T01:57:13.266Z,84.86
2022-11-23T01:57:24.706Z,84.92
2022-11-23T01:57:34.704Z,85.01
2022-11-23T01:57:44.696Z,84.97
2022-11-23T01:57:53.255Z,84.97
2022-11-23T01:58:04.707Z,84.93
2022-11-23T01:58:14.686Z,85.03
2022-11-23T01:58:23.361Z,84.96
2022-11-23T01:58:34.715Z,84.91
2022-11-23T01:58:44.689Z,84.94
2022-11-23T01:58:54.685Z,84.94
2022-11-23T01:59:04.715Z,84.88
2022-11-23T01:59:14.738Z,84.94
2022-11-23T01:59:23.282Z,84.95
2022-11-23T01:59:34.875Z,84.90
2022-11-23T01:59:44.685Z,85.01
2022-11-23T01:59:54.686Z,85.01
2022-11-23T02:00:03.303Z,85.00
2022-11-23T02:00:14.705Z,84.92
2022-11-23T02:00:23.226Z,84.99
2022-11-23T02:00:33.247Z,84.93
2022-11-23T02:00:44.737Z,84.93
2022-11-23T02:00:54.251Z,84.96
2022-11-23T02:01:03.266Z,84.87
2022-11-23T02:01:13.314Z,84.80
2022-11-23T02:01:23.280Z,84.83
2022-11-23T02:01:33.296Z,84.82
2022-11-23T02:01:43.237Z,84.82
2022-11-23T02:01:54.676Z,84.87
2022-11-23T02:02:04.668Z,84.91
2022-11-23T02:02:14.667Z,84.95
2022-11-23T02:02:23.225Z,84.91
2022-11-23T02:02:33.975Z,84.91
2022-11-23T02:02:44.666Z,84.98
2022-11-23T02:02:54.657Z,85.03
2022-11-23T02:03:03.217Z,84.93
2022-11-23T02:03:14.678Z,84.84
2022-11-23T02:03:24.646Z,84.89
2022-11-23T02:03:34.656Z,84.92
2022-11-23T02:03:44.655Z,84.91
2022-11-23T02:03:54.658Z,84.88
2022-11-23T02:04:03.226Z,84.90
2022-11-23T02:04:13.504Z,84.87
2022-11-23T02:04:23.298Z,84.94
2022-11-23T02:04:33.175Z,84.95
2022-11-23T02:04:44.645Z,85.02
2022-11-23T02:04:54.674Z,85.02
2022-11-23T02:05:04.635Z,85.05
2022-11-23T02:05:14.680Z,85.09
2022-11-23T02:05:24.638Z,85.05
2022-11-23T02:05:33.177Z,84.95
2022-11-23T02:05:44.646Z,84.87
2022-11-23T02:05:53.415Z,84.93
2022-11-23T02:06:04.647Z,84.82
2022-11-23T02:06:14.648Z,84.84
2022-11-23T02:06:23.209Z,84.82
2022-11-23T02:06:34.624Z,84.77
2022-11-23T02:06:44.659Z,84.84
2022-11-23T02:06:54.625Z,84.84
2022-11-23T02:07:04.685Z,84.82
2022-11-23T02:07:14.691Z,84.84
2022-11-23T02:07:23.231Z,84.83
2022-11-23T02:07:33.228Z,84.79
2022-11-23T02:07:43.253Z,84.75
2022-11-23T02:07:54.693Z,84.75
2022-11-23T02:08:04.620Z,84.87
2022-11-23T02:08:13.167Z,84.81
2022-11-23T02:08:24.637Z,84.78
2022-11-23T02:08:34.628Z,84.90
2022-11-23T02:08:44.618Z,84.87
2022-11-23T02:08:54.177Z,84.84